sensor_id;sensor_type;location;lat;lon;timestamp;pressure;altitude;pressure_sealevel;temperature
78225;BMP280;67498;53.650;10.090;2024-03-07T00:01:48;102742.69;;;4.49
78225;BMP280;67498;53.650;10.090;2024-03-07T00:04:13;102739.50;;;4.52
78225;BMP280;67498;53.650;10.090;2024-03-07T00:06:38;102737.25;;;4.50
78225;BMP280;67498;53.650;10.090;2024-03-07T00:09:05;102745.91;;;4.54
78225;BMP280;67498;53.650;10.090;2024-03-07T00:11:31;102752.03;;;4.58
78225;BMP280;67498;53.650;10.090;2024-03-07T00:13:56;102751.28;;;4.58
78225;BMP280;67498;53.650;10.090;2024-03-07T00:16:22;102749.59;;;4.62
78225;BMP280;67498;53.650;10.090;2024-03-07T00:18:47;102748.06;;;4.61
78225;BMP280;67498;53.650;10.090;2024-03-07T00:21:13;102741.06;;;4.62
78225;BMP280;67498;53.650;10.090;2024-03-07T00:23:38;102745.19;;;4.63
78225;BMP280;67498;53.650;10.090;2024-03-07T00:26:03;102748.72;;;4.67
78225;BMP280;67498;53.650;10.090;2024-03-07T00:28:29;102744.13;;;4.64
78225;BMP280;67498;53.650;10.090;2024-03-07T00:30:58;102745.66;;;4.65
78225;BMP280;67498;53.650;10.090;2024-03-07T00:33:23;102741.41;;;4.69
78225;BMP280;67498;53.650;10.090;2024-03-07T00:35:49;102741.41;;;4.69
78225;BMP280;67498;53.650;10.090;2024-03-07T00:38:15;102752.97;;;4.71
78225;BMP280;67498;53.650;10.090;2024-03-07T00:40:40;102750.88;;;4.73
78225;BMP280;67498;53.650;10.090;2024-03-07T00:43:05;102745.69;;;4.73
78225;BMP280;67498;53.650;10.090;2024-03-07T00:45:31;102744.94;;;4.73
78225;BMP280;67498;53.650;10.090;2024-03-07T00:47:57;102746.91;;;4.76
78225;BMP280;67498;53.650;10.090;2024-03-07T00:50:23;102742.06;;;4.74
78225;BMP280;67498;53.650;10.090;2024-03-07T00:52:49;102740.53;;;4.73
78225;BMP280;67498;53.650;10.090;2024-03-07T00:55:15;102728.06;;;4.75
78225;BMP280;67498;53.650;10.090;2024-03-07T00:57:40;102743.28;;;4.77
78225;BMP280;67498;53.650;10.090;2024-03-07T01:00:06;102732.19;;;4.76
78225;BMP280;67498;53.650;10.090;2024-03-07T01:02:42;102724.41;;;4.76
78225;BMP280;67498;53.650;10.090;2024-03-07T01:05:09;102728.53;;;4.77
78225;BMP280;67498;53.650;10.090;2024-03-07T01:07:35;102717.41;;;4.77
78225;BMP280;67498;53.650;10.090;2024-03-07T01:10:02;102718.19;;;4.77
78225;BMP280;67498;53.650;10.090;2024-03-07T01:12:28;102710.41;;;4.77
78225;BMP280;67498;53.650;10.090;2024-03-07T01:14:55;102716.66;;;4.76
78225;BMP280;67498;53.650;10.090;2024-03-07T01:17:22;102721.19;;;4.79
78225;BMP280;67498;53.650;10.090;2024-03-07T01:19:47;102715.59;;;4.77
78225;BMP280;67498;53.650;10.090;2024-03-07T01:22:13;102721.03;;;4.76
78225;BMP280;67498;53.650;10.090;2024-03-07T01:24:38;102721.38;;;4.74
78225;BMP280;67498;53.650;10.090;2024-03-07T01:27:04;102725.63;;;4.79
78225;BMP280;67498;53.650;10.090;2024-03-07T01:29:30;102718.00;;;4.74
78225;BMP280;67498;53.650;10.090;2024-03-07T01:31:55;102724.09;;;4.78
78225;BMP280;67498;53.650;10.090;2024-03-07T01:34:20;102728.38;;;4.83
78225;BMP280;67498;53.650;10.090;2024-03-07T01:36:46;102721.19;;;4.79
78225;BMP280;67498;53.650;10.090;2024-03-07T01:39:11;102715.75;;;4.81
78225;BMP280;67498;53.650;10.090;2024-03-07T01:41:36;102724.72;;;4.84
78225;BMP280;67498;53.650;10.090;2024-03-07T01:44:01;102721.34;;;4.83
78225;BMP280;67498;53.650;10.090;2024-03-07T01:46:27;102715.59;;;4.77
78225;BMP280;67498;53.650;10.090;2024-03-07T01:48:53;102715.75;;;4.81
78225;BMP280;67498;53.650;10.090;2024-03-07T01:51:19;102719.38;;;4.80
78225;BMP280;67498;53.650;10.090;2024-03-07T01:53:46;102717.06;;;4.78
78225;BMP280;67498;53.650;10.090;2024-03-07T01:56:12;102706.72;;;4.78
78225;BMP280;67498;53.650;10.090;2024-03-07T01:58:37;102707.50;;;4.79
78225;BMP280;67498;53.650;10.090;2024-03-07T02:01:05;102717.84;;;4.79
78225;BMP280;67498;53.650;10.090;2024-03-07T02:03:30;102706.31;;;4.76
78225;BMP280;67498;53.650;10.090;2024-03-07T02:05:56;102706.59;;;4.75
78225;BMP280;67498;53.650;10.090;2024-03-07T02:08:21;102712.06;;;4.73
78225;BMP280;67498;53.650;10.090;2024-03-07T02:10:46;102706.88;;;4.73
78225;BMP280;67498;53.650;10.090;2024-03-07T02:13:12;102715.13;;;4.75
78225;BMP280;67498;53.650;10.090;2024-03-07T02:15:37;102705.84;;;4.74
78225;BMP280;67498;53.650;10.090;2024-03-07T02:18:03;102698.06;;;4.74
78225;BMP280;67498;53.650;10.090;2024-03-07T02:20:28;102699.44;;;4.72
78225;BMP280;67498;53.650;10.090;2024-03-07T02:22:54;102690.44;;;4.69
78225;BMP280;67498;53.650;10.090;2024-03-07T02:25:19;102695.63;;;4.69
78225;BMP280;67498;53.650;10.090;2024-03-07T02:27:45;102696.53;;;4.73
78225;BMP280;67498;53.650;10.090;2024-03-07T02:30:11;102692.72;;;4.71
78225;BMP280;67498;53.650;10.090;2024-03-07T02:32:37;102698.66;;;4.71
78225;BMP280;67498;53.650;10.090;2024-03-07T02:35:04;102691.19;;;4.70
78225;BMP280;67498;53.650;10.090;2024-03-07T02:37:30;102693.47;;;4.71
78225;BMP280;67498;53.650;10.090;2024-03-07T02:39:55;102686.16;;;4.65
78225;BMP280;67498;53.650;10.090;2024-03-07T02:42:20;102687.38;;;4.67
78225;BMP280;67498;53.650;10.090;2024-03-07T02:44:46;102697.56;;;4.64
78225;BMP280;67498;53.650;10.090;2024-03-07T02:47:11;102689.78;;;4.64
78225;BMP280;67498;53.650;10.090;2024-03-07T02:49:37;102678.38;;;4.56
78225;BMP280;67498;53.650;10.090;2024-03-07T02:52:02;102680.97;;;4.56
78225;BMP280;67498;53.650;10.090;2024-03-07T02:54:27;102685.84;;;4.57
78225;BMP280;67498;53.650;10.090;2024-03-07T02:56:52;102681.56;;;4.53
78225;BMP280;67498;53.650;10.090;2024-03-07T02:59:18;102687.66;;;4.57
78225;BMP280;67498;53.650;10.090;2024-03-07T03:01:43;102688.72;;;4.56
78225;BMP280;67498;53.650;10.090;2024-03-07T03:04:09;102680.03;;;4.52
78225;BMP280;67498;53.650;10.090;2024-03-07T03:06:34;102685.50;;;4.50
78225;BMP280;67498;53.650;10.090;2024-03-07T03:09:00;102690.97;;;4.49
78225;BMP280;67498;53.650;10.090;2024-03-07T03:11:25;102697.66;;;4.50
78225;BMP280;67498;53.650;10.090;2024-03-07T03:13:51;102690.22;;;4.48
78225;BMP280;67498;53.650;10.090;2024-03-07T03:16:16;102690.97;;;4.49
78225;BMP280;67498;53.650;10.090;2024-03-07T03:18:41;102688.97;;;4.46
78225;BMP280;67498;53.650;10.090;2024-03-07T03:21:07;102691.84;;;4.44
78225;BMP280;67498;53.650;10.090;2024-03-07T03:23:32;102694.72;;;4.43
78225;BMP280;67498;53.650;10.090;2024-03-07T03:25:58;102690.50;;;4.38
78225;BMP280;67498;53.650;10.090;2024-03-07T03:28:24;102682.25;;;4.36
78225;BMP280;67498;53.650;10.090;2024-03-07T03:30:50;102683.63;;;4.33
78225;BMP280;67498;53.650;10.090;2024-03-07T03:33:17;102677.22;;;4.31
78225;BMP280;67498;53.650;10.090;2024-03-07T03:35:43;102683.63;;;4.33
78225;BMP280;67498;53.650;10.090;2024-03-07T03:38:09;102677.50;;;4.29
78225;BMP280;67498;53.650;10.090;2024-03-07T03:40:35;102677.50;;;4.29
78225;BMP280;67498;53.650;10.090;2024-03-07T03:43:00;102678.84;;;4.27
78225;BMP280;67498;53.650;10.090;2024-03-07T03:45:26;102682.59;;;4.21
78225;BMP280;67498;53.650;10.090;2024-03-07T03:47:51;102676.22;;;4.18
78225;BMP280;67498;53.650;10.090;2024-03-07T03:50:17;102677.91;;;4.14
78225;BMP280;67498;53.650;10.090;2024-03-07T03:52:43;102675.88;;;4.11
78225;BMP280;67498;53.650;10.090;2024-03-07T03:55:09;102675.88;;;4.11
78225;BMP280;67498;53.650;10.090;2024-03-07T03:57:38;102675.41;;;4.09
78225;BMP280;67498;53.650;10.090;2024-03-07T04:00:05;102682.72;;;4.07
78225;BMP280;67498;53.650;10.090;2024-03-07T04:02:38;102686.94;;;4.03
78225;BMP280;67498;53.650;10.090;2024-03-07T04:05:03;102676.41;;;3.99
78225;BMP280;67498;53.650;10.090;2024-03-07T04:07:31;102686.75;;;3.99
78225;BMP280;67498;53.650;10.090;2024-03-07T04:09:57;102682.78;;;3.93
78225;BMP280;67498;53.650;10.090;2024-03-07T04:12:26;102674.56;;;3.91
78225;BMP280;67498;53.650;10.090;2024-03-07T04:14:53;102676.66;;;3.89
78225;BMP280;67498;53.650;10.090;2024-03-07T04:17:19;102678.50;;;3.88
78225;BMP280;67498;53.650;10.090;2024-03-07T04:19:46;102690.47;;;3.84
78225;BMP280;67498;53.650;10.090;2024-03-07T04:22:11;102691.53;;;3.83
78225;BMP280;67498;53.650;10.090;2024-03-07T04:24:37;102695.47;;;3.81
78225;BMP280;67498;53.650;10.090;2024-03-07T04:27:03;102685.06;;;3.72
78225;BMP280;67498;53.650;10.090;2024-03-07T04:29:35;102692.53;;;3.74
78225;BMP280;67498;53.650;10.090;2024-03-07T04:32:01;102696.47;;;3.71
78225;BMP280;67498;53.650;10.090;2024-03-07T04:34:27;102692.63;;;3.68
78225;BMP280;67498;53.650;10.090;2024-03-07T04:36:58;102694.56;;;3.63
78225;BMP280;67498;53.650;10.090;2024-03-07T04:39:25;102695.41;;;3.58
78225;BMP280;67498;53.650;10.090;2024-03-07T04:42:00;102691.13;;;3.54
78225;BMP280;67498;53.650;10.090;2024-03-07T04:44:27;102699.63;;;3.54
78225;BMP280;67498;53.650;10.090;2024-03-07T04:46:52;102695.19;;;3.46
78225;BMP280;67498;53.650;10.090;2024-03-07T04:49:24;102701.97;;;3.42
78225;BMP280;67498;53.650;10.090;2024-03-07T04:51:54;102695.41;;;3.36
78225;BMP280;67498;53.650;10.090;2024-03-07T04:54:20;102690.13;;;3.27
78225;BMP280;67498;53.650;10.090;2024-03-07T04:56:46;102688.16;;;3.24
78225;BMP280;67498;53.650;10.090;2024-03-07T04:59:12;102687.19;;;3.20
78225;BMP280;67498;53.650;10.090;2024-03-07T05:01:38;102693.13;;;3.20
78225;BMP280;67498;53.650;10.090;2024-03-07T05:04:04;102692.19;;;3.16
78225;BMP280;67498;53.650;10.090;2024-03-07T05:06:31;102692.75;;;3.13
78225;BMP280;67498;53.650;10.090;2024-03-07T05:09:02;102681.00;;;3.07
78225;BMP280;67498;53.650;10.090;2024-03-07T05:11:31;102687.19;;;3.06
78225;BMP280;67498;53.650;10.090;2024-03-07T05:13:57;102687.50;;;3.05
78225;BMP280;67498;53.650;10.090;2024-03-07T05:16:26;102681.94;;;2.97
78225;BMP280;67498;53.650;10.090;2024-03-07T05:18:51;102684.84;;;2.96
78225;BMP280;67498;53.650;10.090;2024-03-07T05:21:18;102686.19;;;2.93
78225;BMP280;67498;53.650;10.090;2024-03-07T05:24:06;102686.75;;;2.90
78225;BMP280;67498;53.650;10.090;2024-03-07T05:26:33;102690.38;;;2.89
78225;BMP280;67498;53.650;10.090;2024-03-07T05:29:07;102703.00;;;2.91
78225;BMP280;67498;53.650;10.090;2024-03-07T05:31:38;102686.34;;;2.83
78225;BMP280;67498;53.650;10.090;2024-03-07T05:34:09;102698.94;;;2.85
78225;BMP280;67498;53.650;10.090;2024-03-07T05:36:38;102702.50;;;2.89
78225;BMP280;67498;53.650;10.090;2024-03-07T05:39:11;102710.72;;;2.91
78225;BMP280;67498;53.650;10.090;2024-03-07T05:41:38;102706.41;;;2.86
78225;BMP280;67498;53.650;10.090;2024-03-07T05:44:04;102711.78;;;2.90
78225;BMP280;67498;53.650;10.090;2024-03-07T05:46:33;102720.78;;;2.92
78225;BMP280;67498;53.650;10.090;2024-03-07T05:49:00;102717.72;;;2.90
78225;BMP280;67498;53.650;10.090;2024-03-07T05:51:25;102714.38;;;2.90
78225;BMP280;67498;53.650;10.090;2024-03-07T05:53:51;102713.59;;;2.89
78225;BMP280;67498;53.650;10.090;2024-03-07T05:56:16;102713.31;;;2.91
78225;BMP280;67498;53.650;10.090;2024-03-07T05:58:42;102723.91;;;2.89
78225;BMP280;67498;53.650;10.090;2024-03-07T06:01:07;102721.31;;;2.89
78225;BMP280;67498;53.650;10.090;2024-03-07T06:03:34;102700.88;;;2.79
78225;BMP280;67498;53.650;10.090;2024-03-07T06:05:59;102713.19;;;2.82
78225;BMP280;67498;53.650;10.090;2024-03-07T06:08:24;102705.16;;;2.84
78225;BMP280;67498;53.650;10.090;2024-03-07T06:10:49;102712.16;;;2.83
78225;BMP280;67498;53.650;10.090;2024-03-07T06:13:16;102715.97;;;2.86
78225;BMP280;67498;53.650;10.090;2024-03-07T06:15:45;102720.06;;;2.87
78225;BMP280;67498;53.650;10.090;2024-03-07T06:18:11;102722.38;;;2.88
78225;BMP280;67498;53.650;10.090;2024-03-07T06:20:39;102715.97;;;2.86
78225;BMP280;67498;53.650;10.090;2024-03-07T06:23:06;102725.53;;;2.85
78225;BMP280;67498;53.650;10.090;2024-03-07T06:25:32;102720.06;;;2.87
78225;BMP280;67498;53.650;10.090;2024-03-07T06:28:16;102719.81;;;2.88
78225;BMP280;67498;53.650;10.090;2024-03-07T06:30:44;102722.66;;;2.87
78225;BMP280;67498;53.650;10.090;2024-03-07T06:33:10;102722.47;;;2.83
78225;BMP280;67498;53.650;10.090;2024-03-07T06:35:36;102725.31;;;2.81
78225;BMP280;67498;53.650;10.090;2024-03-07T06:38:11;102727.16;;;2.81
78225;BMP280;67498;53.650;10.090;2024-03-07T06:40:37;102728.97;;;2.80
78225;BMP280;67498;53.650;10.090;2024-03-07T06:43:03;102727.16;;;2.81
78225;BMP280;67498;53.650;10.090;2024-03-07T06:45:33;102730.97;;;2.84
78225;BMP280;67498;53.650;10.090;2024-03-07T06:47:58;102734.88;;;2.81
78225;BMP280;67498;53.650;10.090;2024-03-07T06:50:24;102734.41;;;2.79
78225;BMP280;67498;53.650;10.090;2024-03-07T06:52:49;102740.53;;;2.83
78225;BMP280;67498;53.650;10.090;2024-03-07T06:55:18;102733.56;;;2.84
78225;BMP280;67498;53.650;10.090;2024-03-07T06:57:48;102738.63;;;2.89
78225;BMP280;67498;53.650;10.090;2024-03-07T07:00:14;102734.78;;;2.86
78225;BMP280;67498;53.650;10.090;2024-03-07T07:02:44;102739.38;;;2.89
78225;BMP280;67498;53.650;10.090;2024-03-07T07:05:10;102738.84;;;2.92
78225;BMP280;67498;53.650;10.090;2024-03-07T07:07:41;102750.84;;;2.97
78225;BMP280;67498;53.650;10.090;2024-03-07T07:10:07;102738.53;;;2.94
78225;BMP280;67498;53.650;10.090;2024-03-07T07:12:35;102738.53;;;2.94
78225;BMP280;67498;53.650;10.090;2024-03-07T07:15:02;102744.94;;;2.96
78225;BMP280;67498;53.650;10.090;2024-03-07T07:17:28;102745.69;;;2.97
78225;BMP280;67498;53.650;10.090;2024-03-07T07:19:54;102748.44;;;3.00
78225;BMP280;67498;53.650;10.090;2024-03-07T07:22:21;102756.19;;;3.00
78225;BMP280;67498;53.650;10.090;2024-03-07T07:24:46;102749.69;;;3.03
78225;BMP280;67498;53.650;10.090;2024-03-07T07:27:11;102754.84;;;3.03
78225;BMP280;67498;53.650;10.090;2024-03-07T07:29:37;102747.59;;;3.05
78225;BMP280;67498;53.650;10.090;2024-03-07T07:32:02;102748.56;;;3.09
78225;BMP280;67498;53.650;10.090;2024-03-07T07:34:27;102746.00;;;3.09
78225;BMP280;67498;53.650;10.090;2024-03-07T07:36:53;102748.00;;;3.12
78225;BMP280;67498;53.650;10.090;2024-03-07T07:39:18;102750.00;;;3.15
78225;BMP280;67498;53.650;10.090;2024-03-07T07:41:43;102747.41;;;3.15
78225;BMP280;67498;53.650;10.090;2024-03-07T07:44:09;102743.97;;;3.20
78225;BMP280;67498;53.650;10.090;2024-03-07T07:46:34;102746.16;;;3.27
78225;BMP280;67498;53.650;10.090;2024-03-07T07:49:01;102738.91;;;3.29
78225;BMP280;67498;53.650;10.090;2024-03-07T07:51:27;102735.25;;;3.30
78225;BMP280;67498;53.650;10.090;2024-03-07T07:53:52;102743.47;;;3.32
78225;BMP280;67498;53.650;10.090;2024-03-07T07:56:19;102735.75;;;3.32
78225;BMP280;67498;53.650;10.090;2024-03-07T07:58:45;102750.84;;;3.38
78225;BMP280;67498;53.650;10.090;2024-03-07T08:01:11;102755.75;;;3.40
78225;BMP280;67498;53.650;10.090;2024-03-07T08:03:36;102746.16;;;3.40
78225;BMP280;67498;53.650;10.090;2024-03-07T08:06:02;102747.19;;;3.39
78225;BMP280;67498;53.650;10.090;2024-03-07T08:08:28;102748.44;;;3.42
78225;BMP280;67498;53.650;10.090;2024-03-07T08:10:53;102746.25;;;3.49
78225;BMP280;67498;53.650;10.090;2024-03-07T08:13:19;102732.34;;;3.59
78225;BMP280;67498;53.650;10.090;2024-03-07T08:15:44;102735.28;;;3.66
78225;BMP280;67498;53.650;10.090;2024-03-07T08:18:09;102748.75;;;3.77
78225;BMP280;67498;53.650;10.090;2024-03-07T08:20:35;102736.47;;;3.82
78225;BMP280;67498;53.650;10.090;2024-03-07T08:23:00;102738.91;;;3.79
78225;BMP280;67498;53.650;10.090;2024-03-07T08:25:27;102744.53;;;3.81
78225;BMP280;67498;53.650;10.090;2024-03-07T08:27:55;102747.31;;;3.84
78225;BMP280;67498;53.650;10.090;2024-03-07T08:30:22;102744.53;;;3.81
78225;BMP280;67498;53.650;10.090;2024-03-07T08:32:57;102740.06;;;3.73
78225;BMP280;67498;53.650;10.090;2024-03-07T08:35:24;102746.47;;;3.75
78225;BMP280;67498;53.650;10.090;2024-03-07T08:37:52;102747.22;;;3.76
78225;BMP280;67498;53.650;10.090;2024-03-07T08:40:23;102744.19;;;3.74
78225;BMP280;67498;53.650;10.090;2024-03-07T08:42:50;102750.88;;;3.75
78225;BMP280;67498;53.650;10.090;2024-03-07T08:45:17;102750.13;;;3.74
78225;BMP280;67498;53.650;10.090;2024-03-07T08:47:44;102741.31;;;3.75
78225;BMP280;67498;53.650;10.090;2024-03-07T08:50:10;102753.63;;;3.78
78225;BMP280;67498;53.650;10.090;2024-03-07T08:52:36;102735.84;;;3.77
78225;BMP280;67498;53.650;10.090;2024-03-07T08:55:02;102735.72;;;3.82
78225;BMP280;67498;53.650;10.090;2024-03-07T08:57:28;102744.53;;;3.81
78225;BMP280;67498;53.650;10.090;2024-03-07T08:59:53;102745.91;;;3.78
78225;BMP280;67498;53.650;10.090;2024-03-07T09:02:18;102749.50;;;3.77
78225;BMP280;67498;53.650;10.090;2024-03-07T09:04:43;102740.38;;;3.71
78225;BMP280;67498;53.650;10.090;2024-03-07T09:07:09;102743.25;;;3.69
78225;BMP280;67498;53.650;10.090;2024-03-07T09:09:35;102747.94;;;3.67
78225;BMP280;67498;53.650;10.090;2024-03-07T09:12:01;102743.25;;;3.69
78225;BMP280;67498;53.650;10.090;2024-03-07T09:14:27;102744.47;;;3.72
78225;BMP280;67498;53.650;10.090;2024-03-07T09:16:53;102747.53;;;3.74
78225;BMP280;67498;53.650;10.090;2024-03-07T09:19:18;102744.66;;;3.76
78225;BMP280;67498;53.650;10.090;2024-03-07T09:21:48;102740.28;;;3.76
78225;BMP280;67498;53.650;10.090;2024-03-07T09:24:15;102750.00;;;3.79
78225;BMP280;67498;53.650;10.090;2024-03-07T09:26:41;102736.16;;;3.75
78225;BMP280;67498;53.650;10.090;2024-03-07T09:29:06;102744.00;;;3.70
78225;BMP280;67498;53.650;10.090;2024-03-07T09:31:32;102743.53;;;3.68
78225;BMP280;67498;53.650;10.090;2024-03-07T09:33:57;102736.25;;;3.70
78225;BMP280;67498;53.650;10.090;2024-03-07T09:36:24;102740.38;;;3.71
78225;BMP280;67498;53.650;10.090;2024-03-07T09:38:49;102737.78;;;3.71
78225;BMP280;67498;53.650;10.090;2024-03-07T09:41:15;102726.78;;;3.65
78225;BMP280;67498;53.650;10.090;2024-03-07T09:43:43;102732.72;;;3.66
78225;BMP280;67498;53.650;10.090;2024-03-07T09:46:12;102733.09;;;3.73
78225;BMP280;67498;53.650;10.090;2024-03-07T09:48:37;102740.72;;;3.78
78225;BMP280;67498;53.650;10.090;2024-03-07T09:51:04;102742.72;;;3.81
78225;BMP280;67498;53.650;10.090;2024-03-07T09:53:30;102738.31;;;3.82
78225;BMP280;67498;53.650;10.090;2024-03-07T09:55:56;102736.47;;;3.82
78225;BMP280;67498;53.650;10.090;2024-03-07T09:58:25;102741.66;;;3.82
78225;BMP280;67498;53.650;10.090;2024-03-07T10:00:54;102738.31;;;3.82
78225;BMP280;67498;53.650;10.090;2024-03-07T10:03:22;102734.84;;;3.86
78225;BMP280;67498;53.650;10.090;2024-03-07T10:05:50;102730.34;;;3.92
78225;BMP280;67498;53.650;10.090;2024-03-07T10:08:17;102729.78;;;3.95
78225;BMP280;67498;53.650;10.090;2024-03-07T10:10:46;102725.84;;;3.98
78225;BMP280;67498;53.650;10.090;2024-03-07T10:13:12;102729.31;;;4.02
78225;BMP280;67498;53.650;10.090;2024-03-07T10:15:38;102721.28;;;4.03
78225;BMP280;67498;53.650;10.090;2024-03-07T10:18:07;102720.69;;;4.06
78225;BMP280;67498;53.650;10.090;2024-03-07T10:20:32;102726.06;;;4.10
78225;BMP280;67498;53.650;10.090;2024-03-07T10:22:57;102709.78;;;4.09
78225;BMP280;67498;53.650;10.090;2024-03-07T10:25:23;102717.75;;;4.22
78225;BMP280;67498;53.650;10.090;2024-03-07T10:27:50;102709.00;;;4.31
78225;BMP280;67498;53.650;10.090;2024-03-07T10:30:16;102705.38;;;4.41
78225;BMP280;67498;53.650;10.090;2024-03-07T10:32:54;102701.19;;;4.54
78225;BMP280;67498;53.650;10.090;2024-03-07T10:35:21;102704.75;;;4.67
78225;BMP280;67498;53.650;10.090;2024-03-07T10:37:47;102714.19;;;4.80
78225;BMP280;67498;53.650;10.090;2024-03-07T10:40:13;102706.78;;;4.87
78225;BMP280;67498;53.650;10.090;2024-03-07T10:42:46;102707.84;;;4.95
78225;BMP280;67498;53.650;10.090;2024-03-07T10:45:18;102706.66;;;5.01
78225;BMP280;67498;53.650;10.090;2024-03-07T10:47:49;102712.91;;;5.09
78225;BMP280;67498;53.650;10.090;2024-03-07T10:50:20;102702.84;;;5.16
78225;BMP280;67498;53.650;10.090;2024-03-07T10:52:58;102707.75;;;5.26
78225;BMP280;67498;53.650;10.090;2024-03-07T10:55:38;102704.25;;;5.31
78225;BMP280;67498;53.650;10.090;2024-03-07T10:58:25;102704.41;;;5.34
78225;BMP280;67498;53.650;10.090;2024-03-07T11:00:55;102700.59;;;5.40
78225;BMP280;67498;53.650;10.090;2024-03-07T11:03:21;102703.47;;;5.47
78225;BMP280;67498;53.650;10.090;2024-03-07T11:05:47;102694.50;;;5.45
78225;BMP280;67498;53.650;10.090;2024-03-07T11:08:14;102697.25;;;5.48
78225;BMP280;67498;53.650;10.090;2024-03-07T11:10:40;102690.50;;;5.47
78225;BMP280;67498;53.650;10.090;2024-03-07T11:13:10;102698.03;;;5.58
78225;BMP280;67498;53.650;10.090;2024-03-07T11:15:39;102691.94;;;5.62
78225;BMP280;67498;53.650;10.090;2024-03-07T11:18:05;102699.38;;;5.73
78225;BMP280;67498;53.650;10.090;2024-03-07T11:20:37;102688.69;;;5.74
78225;BMP280;67498;53.650;10.090;2024-03-07T11:23:38;102690.34;;;5.79
78225;BMP280;67498;53.650;10.090;2024-03-07T11:26:10;102687.16;;;5.82
78225;BMP280;67498;53.650;10.090;2024-03-07T11:28:42;102693.09;;;5.91
78225;BMP280;67498;53.650;10.090;2024-03-07T11:31:09;102684.06;;;5.97
78225;BMP280;67498;53.650;10.090;2024-03-07T11:33:37;102684.97;;;6.01
78225;BMP280;67498;53.650;10.090;2024-03-07T11:36:06;102684.16;;;6.09
78225;BMP280;67498;53.650;10.090;2024-03-07T11:38:32;102680.50;;;6.10
78225;BMP280;67498;53.650;10.090;2024-03-07T11:41:00;102683.25;;;6.14
78225;BMP280;67498;53.650;10.090;2024-03-07T11:43:27;102677.13;;;6.10
78225;BMP280;67498;53.650;10.090;2024-03-07T11:45:53;102675.31;;;6.10
78225;BMP280;67498;53.650;10.090;2024-03-07T11:48:18;102671.50;;;6.17
78225;BMP280;67498;53.650;10.090;2024-03-07T11:50:45;102664.78;;;6.15
78225;BMP280;67498;53.650;10.090;2024-03-07T11:53:11;102672.41;;;6.21
78225;BMP280;67498;53.650;10.090;2024-03-07T11:55:37;102665.38;;;6.21
78225;BMP280;67498;53.650;10.090;2024-03-07T11:58:16;102655.00;;;6.21
78225;BMP280;67498;53.650;10.090;2024-03-07T12:00:45;102664.88;;;6.28
78225;BMP280;67498;53.650;10.090;2024-03-07T12:03:18;102659.41;;;6.29
78225;BMP280;67498;53.650;10.090;2024-03-07T12:05:47;102657.56;;;6.30
78225;BMP280;67498;53.650;10.090;2024-03-07T12:08:13;102658.00;;;6.32
78225;BMP280;67498;53.650;10.090;2024-03-07T12:10:40;102655.22;;;6.37
78225;BMP280;67498;53.650;10.090;2024-03-07T12:13:09;102651.09;;;6.36
78225;BMP280;67498;53.650;10.090;2024-03-07T12:15:36;102642.59;;;6.35
78225;BMP280;67498;53.650;10.090;2024-03-07T12:18:03;102640.09;;;6.39
78225;BMP280;67498;53.650;10.090;2024-03-07T12:20:29;102642.06;;;6.42
78225;BMP280;67498;53.650;10.090;2024-03-07T12:23:02;102638.09;;;6.45
78225;BMP280;67498;53.650;10.090;2024-03-07T12:25:28;102634.13;;;6.47
78225;BMP280;67498;53.650;10.090;2024-03-07T12:28:11;102632.84;;;6.53
78225;BMP280;67498;53.650;10.090;2024-03-07T12:30:56;102632.34;;;6.60
78225;BMP280;67498;53.650;10.090;2024-03-07T12:33:22;102620.25;;;6.64
78225;BMP280;67498;53.650;10.090;2024-03-07T12:35:51;102619.94;;;6.66
78225;BMP280;67498;53.650;10.090;2024-03-07T12:38:18;102626.72;;;6.79
78225;BMP280;67498;53.650;10.090;2024-03-07T12:40:44;102614.34;;;6.85
78225;BMP280;67498;53.650;10.090;2024-03-07T12:43:18;102615.53;;;6.87
78225;BMP280;67498;53.650;10.090;2024-03-07T12:45:48;102608.94;;;6.90
78225;BMP280;67498;53.650;10.090;2024-03-07T12:48:13;102620.81;;;6.91
78225;BMP280;67498;53.650;10.090;2024-03-07T12:50:40;102609.50;;;6.95
78225;BMP280;67498;53.650;10.090;2024-03-07T12:53:05;102616.66;;;6.98
78225;BMP280;67498;53.650;10.090;2024-03-07T12:55:31;102617.84;;;7.01
78225;BMP280;67498;53.650;10.090;2024-03-07T12:57:56;102606.38;;;7.02
78225;BMP280;67498;53.650;10.090;2024-03-07T13:00:22;102606.94;;;7.07
78225;BMP280;67498;53.650;10.090;2024-03-07T13:02:48;102607.06;;;7.11
78225;BMP280;67498;53.650;10.090;2024-03-07T13:05:14;102606.22;;;7.19
78225;BMP280;67498;53.650;10.090;2024-03-07T13:07:48;102607.56;;;7.25
78225;BMP280;67498;53.650;10.090;2024-03-07T13:10:14;102598.66;;;7.26
78225;BMP280;67498;53.650;10.090;2024-03-07T13:12:41;102595.00;;;7.27
78225;BMP280;67498;53.650;10.090;2024-03-07T13:15:09;102595.63;;;7.24
78225;BMP280;67498;53.650;10.090;2024-03-07T13:17:35;102597.16;;;7.25
78225;BMP280;67498;53.650;10.090;2024-03-07T13:20:01;102590.13;;;7.26
78225;BMP280;67498;53.650;10.090;2024-03-07T13:22:26;102591.22;;;7.25
78225;BMP280;67498;53.650;10.090;2024-03-07T13:24:51;102581.59;;;7.25
78225;BMP280;67498;53.650;10.090;2024-03-07T13:27:16;102577.81;;;7.35
78225;BMP280;67498;53.650;10.090;2024-03-07T13:29:53;102586.13;;;7.53
78225;BMP280;67498;53.650;10.090;2024-03-07T13:32:18;102580.94;;;7.65
78225;BMP280;67498;53.650;10.090;2024-03-07T13:34:43;102578.59;;;7.72
78225;BMP280;67498;53.650;10.090;2024-03-07T13:37:10;102582.69;;;7.73
78225;BMP280;67498;53.650;10.090;2024-03-07T13:39:37;102575.97;;;7.72
78225;BMP280;67498;53.650;10.090;2024-03-07T13:42:02;102573.59;;;7.67
78225;BMP280;67498;53.650;10.090;2024-03-07T13:44:29;102570.88;;;7.64
78225;BMP280;67498;53.650;10.090;2024-03-07T13:46:55;102574.47;;;7.71
78225;BMP280;67498;53.650;10.090;2024-03-07T13:49:20;102566.22;;;7.82
78225;BMP280;67498;53.650;10.090;2024-03-07T13:51:49;102566.88;;;7.91
78225;BMP280;67498;53.650;10.090;2024-03-07T13:54:21;102552.66;;;8.01
78225;BMP280;67498;53.650;10.090;2024-03-07T14:00:12;102554.78;;;8.35